sensor_id;sensor_type;location;lat;lon;timestamp;temperature;humidity
19728;DHT22;10015;52.530;13.390;2023-07-30T00:02:22;21.30;99.90
19728;DHT22;10015;52.530;13.390;2023-07-30T00:04:48;21.30;99.90
19728;DHT22;10015;52.530;13.390;2023-07-30T00:07:14;21.30;99.90
19728;DHT22;10015;52.530;13.390;2023-07-30T00:09:40;21.20;99.90
19728;DHT22;10015;52.530;13.390;2023-07-30T00:12:07;21.30;99.90
19728;DHT22;10015;52.530;13.390;2023-07-30T00:14:33;21.30;99.90
19728;DHT22;10015;52.530;13.390;2023-07-30T00:17:00;21.30;99.90
19728;DHT22;10015;52.530;13.390;2023-07-30T00:19:26;21.20;99.90
19728;DHT22;10015;52.530;13.390;2023-07-30T00:21:52;21.20;99.90
19728;DHT22;10015;52.530;13.390;2023-07-30T00:24:18;21.20;99.90
19728;DHT22;10015;52.530;13.390;2023-07-30T00:26:44;21.20;99.90
19728;DHT22;10015;52.530;13.390;2023-07-30T00:29:10;21.10;99.90
19728;DHT22;10015;52.530;13.390;2023-07-30T00:31:36;21.10;99.90
19728;DHT22;10015;52.530;13.390;2023-07-30T00:34:02;21.10;99.90
19728;DHT22;10015;52.530;13.390;2023-07-30T00:36:28;21.10;99.90
19728;DHT22;10015;52.530;13.390;2023-07-30T00:38:54;21.10;99.90
19728;DHT22;10015;52.530;13.390;2023-07-30T00:41:20;21.10;99.90
19728;DHT22;10015;52.530;13.390;2023-07-30T00:43:46;21.10;99.90
19728;DHT22;10015;52.530;13.390;2023-07-30T00:46:13;21.10;99.90
19728;DHT22;10015;52.530;13.390;2023-07-30T00:48:39;21.10;99.90
19728;DHT22;10015;52.530;13.390;2023-07-30T00:51:06;21.10;99.90
19728;DHT22;10015;52.530;13.390;2023-07-30T00:53:33;21.10;99.90
19728;DHT22;10015;52.530;13.390;2023-07-30T00:56:01;21.10;99.90
19728;DHT22;10015;52.530;13.390;2023-07-30T00:58:27;21.10;99.90
19728;DHT22;10015;52.530;13.390;2023-07-30T01:00:54;21.10;99.90
19728;DHT22;10015;52.530;13.390;2023-07-30T01:03:20;21.10;99.90
19728;DHT22;10015;52.530;13.390;2023-07-30T01:05:46;21.20;99.90
19728;DHT22;10015;52.530;13.390;2023-07-30T01:08:12;21.20;99.90
19728;DHT22;10015;52.530;13.390;2023-07-30T01:10:40;21.20;99.90
19728;DHT22;10015;52.530;13.390;2023-07-30T01:13:08;21.10;99.90
19728;DHT22;10015;52.530;13.390;2023-07-30T01:15:35;21.10;99.90
19728;DHT22;10015;52.530;13.390;2023-07-30T01:18:02;21.10;99.90
19728;DHT22;10015;52.530;13.390;2023-07-30T01:20:32;21.10;99.90
19728;DHT22;10015;52.530;13.390;2023-07-30T01:22:59;21.00;99.90
19728;DHT22;10015;52.530;13.390;2023-07-30T01:25:29;21.10;99.90
19728;DHT22;10015;52.530;13.390;2023-07-30T01:27:59;21.20;99.90
19728;DHT22;10015;52.530;13.390;2023-07-30T01:30:34;21.20;99.90
19728;DHT22;10015;52.530;13.390;2023-07-30T01:33:03;21.10;99.90
19728;DHT22;10015;52.530;13.390;2023-07-30T01:35:30;21.00;99.90
19728;DHT22;10015;52.530;13.390;2023-07-30T01:37:57;21.10;99.90
19728;DHT22;10015;52.530;13.390;2023-07-30T01:40:24;21.00;99.90
19728;DHT22;10015;52.530;13.390;2023-07-30T01:42:50;21.00;99.90
19728;DHT22;10015;52.530;13.390;2023-07-30T01:45:17;20.90;99.90
19728;DHT22;10015;52.530;13.390;2023-07-30T01:47:43;20.90;99.90
19728;DHT22;10015;52.530;13.390;2023-07-30T01:50:09;20.90;99.90
19728;DHT22;10015;52.530;13.390;2023-07-30T01:52:35;20.90;99.90
19728;DHT22;10015;52.530;13.390;2023-07-30T01:55:01;20.90;99.90
19728;DHT22;10015;52.530;13.390;2023-07-30T01:57:27;20.80;99.90
19728;DHT22;10015;52.530;13.390;2023-07-30T01:59:53;20.80;99.90
19728;DHT22;10015;52.530;13.390;2023-07-30T02:02:19;20.70;99.90
19728;DHT22;10015;52.530;13.390;2023-07-30T02:04:45;20.60;99.90
19728;DHT22;10015;52.530;13.390;2023-07-30T02:07:11;20.50;99.90
19728;DHT22;10015;52.530;13.390;2023-07-30T02:09:37;20.50;99.90
19728;DHT22;10015;52.530;13.390;2023-07-30T02:12:03;20.40;99.90
19728;DHT22;10015;52.530;13.390;2023-07-30T02:14:29;20.40;99.90
19728;DHT22;10015;52.530;13.390;2023-07-30T02:17:00;20.40;99.90
19728;DHT22;10015;52.530;13.390;2023-07-30T02:19:25;20.40;99.90
19728;DHT22;10015;52.530;13.390;2023-07-30T02:21:51;20.30;99.90
19728;DHT22;10015;52.530;13.390;2023-07-30T02:24:17;20.20;99.90
19728;DHT22;10015;52.530;13.390;2023-07-30T02:26:43;20.20;99.90
19728;DHT22;10015;52.530;13.390;2023-07-30T02:29:09;20.20;99.90
19728;DHT22;10015;52.530;13.390;2023-07-30T02:31:35;20.10;99.90
19728;DHT22;10015;52.530;13.390;2023-07-30T02:34:01;20.10;99.90
19728;DHT22;10015;52.530;13.390;2023-07-30T02:36:26;20.10;99.90
19728;DHT22;10015;52.530;13.390;2023-07-30T02:38:52;20.10;99.90
19728;DHT22;10015;52.530;13.390;2023-07-30T02:41:18;20.10;99.90
19728;DHT22;10015;52.530;13.390;2023-07-30T02:43:44;20.10;99.90
19728;DHT22;10015;52.530;13.390;2023-07-30T02:46:10;20.00;99.90
19728;DHT22;10015;52.530;13.390;2023-07-30T02:48:39;20.00;99.90
19728;DHT22;10015;52.530;13.390;2023-07-30T02:51:04;20.10;99.90
19728;DHT22;10015;52.530;13.390;2023-07-30T02:53:31;20.00;99.90
19728;DHT22;10015;52.530;13.390;2023-07-30T02:55:57;20.00;99.90
19728;DHT22;10015;52.530;13.390;2023-07-30T02:58:23;20.00;99.90
19728;DHT22;10015;52.530;13.390;2023-07-30T03:00:48;20.00;99.90
19728;DHT22;10015;52.530;13.390;2023-07-30T03:03:16;20.00;99.90
19728;DHT22;10015;52.530;13.390;2023-07-30T03:05:42;20.00;99.90
19728;DHT22;10015;52.530;13.390;2023-07-30T03:08:09;20.10;99.90
19728;DHT22;10015;52.530;13.390;2023-07-30T03:10:36;20.10;99.90
19728;DHT22;10015;52.530;13.390;2023-07-30T03:13:02;20.10;99.90
19728;DHT22;10015;52.530;13.390;2023-07-30T03:15:28;20.00;99.90
19728;DHT22;10015;52.530;13.390;2023-07-30T03:17:54;20.00;99.90
19728;DHT22;10015;52.530;13.390;2023-07-30T03:20:20;20.00;99.90
19728;DHT22;10015;52.530;13.390;2023-07-30T03:22:46;19.90;99.90
19728;DHT22;10015;52.530;13.390;2023-07-30T03:25:12;19.90;99.90
19728;DHT22;10015;52.530;13.390;2023-07-30T03:27:37;20.00;99.90
19728;DHT22;10015;52.530;13.390;2023-07-30T03:30:04;20.10;99.90
19728;DHT22;10015;52.530;13.390;2023-07-30T03:32:30;20.20;99.90
19728;DHT22;10015;52.530;13.390;2023-07-30T03:34:56;20.10;99.90
19728;DHT22;10015;52.530;13.390;2023-07-30T03:37:22;20.20;99.90
19728;DHT22;10015;52.530;13.390;2023-07-30T03:39:48;20.10;99.90
19728;DHT22;10015;52.530;13.390;2023-07-30T03:42:13;20.10;99.90
19728;DHT22;10015;52.530;13.390;2023-07-30T03:44:39;20.10;99.90
19728;DHT22;10015;52.530;13.390;2023-07-30T03:47:05;20.10;99.90
19728;DHT22;10015;52.530;13.390;2023-07-30T03:49:31;20.10;99.90
19728;DHT22;10015;52.530;13.390;2023-07-30T03:51:57;20.00;99.90
19728;DHT22;10015;52.530;13.390;2023-07-30T03:54:23;19.90;99.90
19728;DHT22;10015;52.530;13.390;2023-07-30T03:56:49;19.90;99.90
19728;DHT22;10015;52.530;13.390;2023-07-30T03:59:15;19.90;99.90
19728;DHT22;10015;52.530;13.390;2023-07-30T04:01:42;20.00;99.90
19728;DHT22;10015;52.530;13.390;2023-07-30T04:04:08;20.00;99.90
19728;DHT22;10015;52.530;13.390;2023-07-30T04:06:34;20.10;99.90
19728;DHT22;10015;52.530;13.390;2023-07-30T04:09:00;20.10;99.90
19728;DHT22;10015;52.530;13.390;2023-07-30T04:11:26;20.20;99.90
19728;DHT22;10015;52.530;13.390;2023-07-30T04:13:51;20.20;99.90
19728;DHT22;10015;52.530;13.390;2023-07-30T04:16:17;20.20;99.90
19728;DHT22;10015;52.530;13.390;2023-07-30T04:18:43;20.20;99.90
19728;DHT22;10015;52.530;13.390;2023-07-30T04:21:09;20.10;99.90
19728;DHT22;10015;52.530;13.390;2023-07-30T04:23:36;20.10;99.90
19728;DHT22;10015;52.530;13.390;2023-07-30T04:26:02;20.20;99.90
19728;DHT22;10015;52.530;13.390;2023-07-30T04:28:28;20.20;99.90
19728;DHT22;10015;52.530;13.390;2023-07-30T04:30:54;20.20;99.90
19728;DHT22;10015;52.530;13.390;2023-07-30T04:33:20;20.20;99.90
19728;DHT22;10015;52.530;13.390;2023-07-30T04:35:46;20.20;99.90
19728;DHT22;10015;52.530;13.390;2023-07-30T04:38:12;20.10;99.90
19728;DHT22;10015;52.530;13.390;2023-07-30T04:40:39;20.00;99.90
19728;DHT22;10015;52.530;13.390;2023-07-30T04:43:05;20.10;99.90
19728;DHT22;10015;52.530;13.390;2023-07-30T04:45:31;20.10;99.90
19728;DHT22;10015;52.530;13.390;2023-07-30T04:47:57;20.30;99.90
19728;DHT22;10015;52.530;13.390;2023-07-30T04:50:23;20.30;99.90
19728;DHT22;10015;52.530;13.390;2023-07-30T04:52:49;20.30;99.90
19728;DHT22;10015;52.530;13.390;2023-07-30T04:55:15;20.40;99.90
19728;DHT22;10015;52.530;13.390;2023-07-30T04:57:41;20.40;99.90
19728;DHT22;10015;52.530;13.390;2023-07-30T05:00:07;20.50;99.90
19728;DHT22;10015;52.530;13.390;2023-07-30T05:02:33;20.70;99.90
19728;DHT22;10015;52.530;13.390;2023-07-30T05:04:59;20.70;99.90
19728;DHT22;10015;52.530;13.390;2023-07-30T05:07:25;20.90;99.90
19728;DHT22;10015;52.530;13.390;2023-07-30T05:09:51;21.00;99.90
19728;DHT22;10015;52.530;13.390;2023-07-30T05:12:17;21.20;99.90
19728;DHT22;10015;52.530;13.390;2023-07-30T05:14:43;21.30;99.90
19728;DHT22;10015;52.530;13.390;2023-07-30T05:17:09;21.40;99.90
19728;DHT22;10015;52.530;13.390;2023-07-30T05:19:35;21.60;99.90
19728;DHT22;10015;52.530;13.390;2023-07-30T05:22:01;21.70;99.90
19728;DHT22;10015;52.530;13.390;2023-07-30T05:24:27;21.70;99.90
19728;DHT22;10015;52.530;13.390;2023-07-30T05:26:53;21.80;99.90
19728;DHT22;10015;52.530;13.390;2023-07-30T05:29:19;21.90;99.90
19728;DHT22;10015;52.530;13.390;2023-07-30T05:31:45;22.00;99.90
19728;DHT22;10015;52.530;13.390;2023-07-30T05:34:11;22.10;99.90
19728;DHT22;10015;52.530;13.390;2023-07-30T05:36:37;22.30;99.90
19728;DHT22;10015;52.530;13.390;2023-07-30T05:39:03;22.40;99.90
19728;DHT22;10015;52.530;13.390;2023-07-30T05:41:28;22.40;99.90
19728;DHT22;10015;52.530;13.390;2023-07-30T05:43:54;22.50;99.90
19728;DHT22;10015;52.530;13.390;2023-07-30T05:46:20;22.40;99.90
19728;DHT22;10015;52.530;13.390;2023-07-30T05:48:46;22.40;99.90
19728;DHT22;10015;52.530;13.390;2023-07-30T05:51:12;22.40;99.90
19728;DHT22;10015;52.530;13.390;2023-07-30T05:53:38;22.20;99.90
19728;DHT22;10015;52.530;13.390;2023-07-30T05:56:04;22.10;99.90
19728;DHT22;10015;52.530;13.390;2023-07-30T05:58:30;22.20;99.90
19728;DHT22;10015;52.530;13.390;2023-07-30T06:00:56;22.10;99.90
19728;DHT22;10015;52.530;13.390;2023-07-30T06:03:22;22.10;99.90
19728;DHT22;10015;52.530;13.390;2023-07-30T06:05:48;22.10;99.90
19728;DHT22;10015;52.530;13.390;2023-07-30T06:08:14;22.30;99.90
19728;DHT22;10015;52.530;13.390;2023-07-30T06:10:39;22.30;99.90
19728;DHT22;10015;52.530;13.390;2023-07-30T06:13:06;22.40;99.90
19728;DHT22;10015;52.530;13.390;2023-07-30T06:15:33;22.70;99.90
19728;DHT22;10015;52.530;13.390;2023-07-30T06:18:01;22.80;99.90
19728;DHT22;10015;52.530;13.390;2023-07-30T06:20:28;23.00;99.90
19728;DHT22;10015;52.530;13.390;2023-07-30T06:22:54;23.20;99.90
19728;DHT22;10015;52.530;13.390;2023-07-30T06:25:19;23.40;99.90
19728;DHT22;10015;52.530;13.390;2023-07-30T06:27:45;23.50;99.90
19728;DHT22;10015;52.530;13.390;2023-07-30T06:30:11;23.50;99.90
19728;DHT22;10015;52.530;13.390;2023-07-30T06:32:37;23.60;99.90
19728;DHT22;10015;52.530;13.390;2023-07-30T06:35:03;23.60;99.90
19728;DHT22;10015;52.530;13.390;2023-07-30T06:37:29;23.60;99.90
19728;DHT22;10015;52.530;13.390;2023-07-30T06:39:55;23.50;99.90
19728;DHT22;10015;52.530;13.390;2023-07-30T06:42:21;23.50;99.90
19728;DHT22;10015;52.530;13.390;2023-07-30T06:44:47;23.50;99.90
19728;DHT22;10015;52.530;13.390;2023-07-30T06:47:13;23.50;99.90
19728;DHT22;10015;52.530;13.390;2023-07-30T06:49:39;23.40;99.90
19728;DHT22;10015;52.530;13.390;2023-07-30T06:52:05;23.30;99.90
19728;DHT22;10015;52.530;13.390;2023-07-30T06:54:31;23.10;99.90
19728;DHT22;10015;52.530;13.390;2023-07-30T06:56:56;23.00;99.90
19728;DHT22;10015;52.530;13.390;2023-07-30T06:59:22;23.00;99.90
19728;DHT22;10015;52.530;13.390;2023-07-30T07:01:48;22.80;99.90
19728;DHT22;10015;52.530;13.390;2023-07-30T07:04:14;22.70;99.90
19728;DHT22;10015;52.530;13.390;2023-07-30T07:06:40;22.70;99.90
19728;DHT22;10015;52.530;13.390;2023-07-30T07:09:06;22.80;99.90
19728;DHT22;10015;52.530;13.390;2023-07-30T07:11:32;22.80;99.90
19728;DHT22;10015;52.530;13.390;2023-07-30T07:13:58;23.10;99.90
19728;DHT22;10015;52.530;13.390;2023-07-30T07:16:24;23.30;99.90
19728;DHT22;10015;52.530;13.390;2023-07-30T07:18:50;23.40;99.90
19728;DHT22;10015;52.530;13.390;2023-07-30T07:21:16;23.50;99.90
19728;DHT22;10015;52.530;13.390;2023-07-30T07:23:41;23.70;99.90
19728;DHT22;10015;52.530;13.390;2023-07-30T07:26:08;23.90;99.90
19728;DHT22;10015;52.530;13.390;2023-07-30T07:28:34;24.10;99.90
19728;DHT22;10015;52.530;13.390;2023-07-30T07:31:00;24.30;99.90
19728;DHT22;10015;52.530;13.390;2023-07-30T07:33:27;24.70;99.90
19728;DHT22;10015;52.530;13.390;2023-07-30T07:36:05;25.00;99.90
19728;DHT22;10015;52.530;13.390;2023-07-30T07:38:32;25.10;99.90
19728;DHT22;10015;52.530;13.390;2023-07-30T07:40:59;25.20;99.90
19728;DHT22;10015;52.530;13.390;2023-07-30T07:43:25;25.20;99.90
19728;DHT22;10015;52.530;13.390;2023-07-30T07:45:52;25.10;99.90
19728;DHT22;10015;52.530;13.390;2023-07-30T07:48:18;25.10;99.90
19728;DHT22;10015;52.530;13.390;2023-07-30T07:50:44;25.10;99.90
19728;DHT22;10015;52.530;13.390;2023-07-30T07:53:10;25.10;99.90
19728;DHT22;10015;52.530;13.390;2023-07-30T07:55:36;25.10;99.90
19728;DHT22;10015;52.530;13.390;2023-07-30T07:58:02;25.20;99.90
19728;DHT22;10015;52.530;13.390;2023-07-30T08:00:28;25.40;99.90
19728;DHT22;10015;52.530;13.390;2023-07-30T08:02:53;25.50;99.90
19728;DHT22;10015;52.530;13.390;2023-07-30T08:05:19;25.40;99.90
19728;DHT22;10015;52.530;13.390;2023-07-30T08:07:46;25.50;99.90
19728;DHT22;10015;52.530;13.390;2023-07-30T08:10:12;25.70;99.90
19728;DHT22;10015;52.530;13.390;2023-07-30T08:12:38;26.00;99.90
19728;DHT22;10015;52.530;13.390;2023-07-30T08:15:05;26.10;99.90
19728;DHT22;10015;52.530;13.390;2023-07-30T08:17:31;26.00;99.90
19728;DHT22;10015;52.530;13.390;2023-07-30T08:19:57;26.00;99.90
19728;DHT22;10015;52.530;13.390;2023-07-30T08:22:22;26.20;99.90
19728;DHT22;10015;52.530;13.390;2023-07-30T08:24:48;26.40;99.90
19728;DHT22;10015;52.530;13.390;2023-07-30T08:27:14;26.40;99.90
19728;DHT22;10015;52.530;13.390;2023-07-30T08:29:40;26.40;99.90
19728;DHT22;10015;52.530;13.390;2023-07-30T08:32:06;26.50;99.90
19728;DHT22;10015;52.530;13.390;2023-07-30T08:34:32;26.50;99.90
19728;DHT22;10015;52.530;13.390;2023-07-30T08:36:58;26.50;99.90
19728;DHT22;10015;52.530;13.390;2023-07-30T08:39:24;26.30;99.90
19728;DHT22;10015;52.530;13.390;2023-07-30T08:41:50;26.30;99.90
19728;DHT22;10015;52.530;13.390;2023-07-30T08:44:16;26.20;99.90
19728;DHT22;10015;52.530;13.390;2023-07-30T08:46:42;26.00;99.90
19728;DHT22;10015;52.530;13.390;2023-07-30T08:49:08;25.80;99.90
19728;DHT22;10015;52.530;13.390;2023-07-30T08:51:36;25.50;99.90
19728;DHT22;10015;52.530;13.390;2023-07-30T08:54:03;25.10;99.90
19728;DHT22;10015;52.530;13.390;2023-07-30T08:56:31;24.90;99.90
19728;DHT22;10015;52.530;13.390;2023-07-30T08:58:58;24.90;99.90
19728;DHT22;10015;52.530;13.390;2023-07-30T09:01:30;24.90;99.90
19728;DHT22;10015;52.530;13.390;2023-07-30T09:03:59;25.00;99.90
19728;DHT22;10015;52.530;13.390;2023-07-30T09:06:28;25.10;99.90
19728;DHT22;10015;52.530;13.390;2023-07-30T09:08:54;25.40;99.90
19728;DHT22;10015;52.530;13.390;2023-07-30T09:11:20;25.50;99.90
19728;DHT22;10015;52.530;13.390;2023-07-30T09:13:54;25.70;99.90
19728;DHT22;10015;52.530;13.390;2023-07-30T09:16:24;26.00;99.90
19728;DHT22;10015;52.530;13.390;2023-07-30T09:18:50;26.40;99.90
19728;DHT22;10015;52.530;13.390;2023-07-30T09:21:18;26.70;99.90
19728;DHT22;10015;52.530;13.390;2023-07-30T09:23:46;26.90;99.90
19728;DHT22;10015;52.530;13.390;2023-07-30T09:26:13;26.90;99.90
19728;DHT22;10015;52.530;13.390;2023-07-30T09:28:42;26.70;99.90
19728;DHT22;10015;52.530;13.390;2023-07-30T09:31:09;26.80;99.90
19728;DHT22;10015;52.530;13.390;2023-07-30T09:33:39;27.10;99.90
19728;DHT22;10015;52.530;13.390;2023-07-30T09:36:07;27.20;99.90
19728;DHT22;10015;52.530;13.390;2023-07-30T09:38:43;27.20;99.90
19728;DHT22;10015;52.530;13.390;2023-07-30T09:41:09;27.20;99.90
19728;DHT22;10015;52.530;13.390;2023-07-30T09:43:36;27.30;99.90
19728;DHT22;10015;52.530;13.390;2023-07-30T09:46:04;27.40;99.90
19728;DHT22;10015;52.530;13.390;2023-07-30T09:48:31;27.50;99.90
19728;DHT22;10015;52.530;13.390;2023-07-30T09:51:02;27.50;99.90
19728;DHT22;10015;52.530;13.390;2023-07-30T09:53:32;27.50;99.90
19728;DHT22;10015;52.530;13.390;2023-07-30T09:56:05;27.60;99.90
19728;DHT22;10015;52.530;13.390;2023-07-30T09:58:32;27.60;99.90
19728;DHT22;10015;52.530;13.390;2023-07-30T10:00:59;27.60;99.90
19728;DHT22;10015;52.530;13.390;2023-07-30T10:03:26;27.50;99.90
19728;DHT22;10015;52.530;13.390;2023-07-30T10:05:58;27.60;99.90
19728;DHT22;10015;52.530;13.390;2023-07-30T10:08:29;27.70;99.90
19728;DHT22;10015;52.530;13.390;2023-07-30T10:10:57;27.80;99.90
19728;DHT22;10015;52.530;13.390;2023-07-30T10:13:24;27.90;99.90
19728;DHT22;10015;52.530;13.390;2023-07-30T10:15:51;28.00;99.90
19728;DHT22;10015;52.530;13.390;2023-07-30T10:18:18;27.90;99.90
19728;DHT22;10015;52.530;13.390;2023-07-30T10:20:54;27.90;99.90
19728;DHT22;10015;52.530;13.390;2023-07-30T10:23:27;28.00;99.90
19728;DHT22;10015;52.530;13.390;2023-07-30T10:25:53;28.00;99.90
19728;DHT22;10015;52.530;13.390;2023-07-30T10:28:31;28.10;99.90
19728;DHT22;10015;52.530;13.390;2023-07-30T10:31:00;28.10;99.90
19728;DHT22;10015;52.530;13.390;2023-07-30T10:34:01;28.10;99.90
19728;DHT22;10015;52.530;13.390;2023-07-30T10:36:33;28.10;99.90
19728;DHT22;10015;52.530;13.390;2023-07-30T10:39:20;28.00;99.90
19728;DHT22;10015;52.530;13.390;2023-07-30T10:41:53;27.90;99.90
19728;DHT22;10015;52.530;13.390;2023-07-30T10:44:26;27.60;99.90
19728;DHT22;10015;52.530;13.390;2023-07-30T10:46:56;27.50;99.90
19728;DHT22;10015;52.530;13.390;2023-07-30T10:49:23;27.40;99.90
19728;DHT22;10015;52.530;13.390;2023-07-30T10:51:51;27.50;99.90
19728;DHT22;10015;52.530;13.390;2023-07-30T10:54:18;27.30;99.90
19728;DHT22;10015;52.530;13.390;2023-07-30T10:56:45;27.40;99.90
19728;DHT22;10015;52.530;13.390;2023-07-30T10:59:12;27.40;99.90
19728;DHT22;10015;52.530;13.390;2023-07-30T11:01:43;27.50;99.90
19728;DHT22;10015;52.530;13.390;2023-07-30T11:04:15;27.40;99.90
19728;DHT22;10015;52.530;13.390;2023-07-30T11:06:50;27.50;99.90
19728;DHT22;10015;52.530;13.390;2023-07-30T11:09:20;27.60;99.90
19728;DHT22;10015;52.530;13.390;2023-07-30T11:11:47;27.70;99.90
19728;DHT22;10015;52.530;13.390;2023-07-30T11:14:17;27.50;99.90
19728;DHT22;10015;52.530;13.390;2023-07-30T11:16:54;27.50;99.90
19728;DHT22;10015;52.530;13.390;2023-07-30T11:19:21;27.60;99.90
19728;DHT22;10015;52.530;13.390;2023-07-30T11:21:48;27.80;99.90
19728;DHT22;10015;52.530;13.390;2023-07-30T11:24:14;27.90;99.90
19728;DHT22;10015;52.530;13.390;2023-07-30T11:26:41;27.90;99.90
19728;DHT22;10015;52.530;13.390;2023-07-30T11:29:17;27.80;99.90
19728;DHT22;10015;52.530;13.390;2023-07-30T11:31:44;27.50;99.90
19728;DHT22;10015;52.530;13.390;2023-07-30T11:34:11;27.50;99.90
19728;DHT22;10015;52.530;13.390;2023-07-30T11:36:38;27.60;99.90
19728;DHT22;10015;52.530;13.390;2023-07-30T11:39:04;27.60;99.90
19728;DHT22;10015;52.530;13.390;2023-07-30T11:41:31;27.60;99.90
19728;DHT22;10015;52.530;13.390;2023-07-30T11:43:58;27.60;99.90
19728;DHT22;10015;52.530;13.390;2023-07-30T11:46:23;27.70;99.90
19728;DHT22;10015;52.530;13.390;2023-07-30T11:48:51;27.70;99.90
19728;DHT22;10015;52.530;13.390;2023-07-30T11:51:26;27.60;99.90
19728;DHT22;10015;52.530;13.390;2023-07-30T11:53:56;27.60;99.90
19728;DHT22;10015;52.530;13.390;2023-07-30T11:56:32;27.60;99.90
19728;DHT22;10015;52.530;13.390;2023-07-30T11:59:01;27.40;99.90
19728;DHT22;10015;52.530;13.390;2023-07-30T12:01:33;27.40;99.90
19728;DHT22;10015;52.530;13.390;2023-07-30T12:04:02;27.60;99.90
19728;DHT22;10015;52.530;13.390;2023-07-30T12:06:48;27.70;99.90
19728;DHT22;10015;52.530;13.390;2023-07-30T12:09:15;27.60;99.90
19728;DHT22;10015;52.530;13.390;2023-07-30T12:11:56;27.60;99.90
19728;DHT22;10015;52.530;13.390;2023-07-30T12:14:26;27.50;99.90
19728;DHT22;10015;52.530;13.390;2023-07-30T12:16:56;27.50;99.90
19728;DHT22;10015;52.530;13.390;2023-07-30T12:19:22;27.50;99.90
19728;DHT22;10015;52.530;13.390;2023-07-30T12:21:48;27.40;99.90
19728;DHT22;10015;52.530;13.390;2023-07-30T12:24:14;27.50;99.90
19728;DHT22;10015;52.530;13.390;2023-07-30T12:26:41;27.50;99.90
19728;DHT22;10015;52.530;13.390;2023-07-30T12:29:06;27.30;99.90
19728;DHT22;10015;52.530;13.390;2023-07-30T12:31:32;27.20;99.90
19728;DHT22;10015;52.530;13.390;2023-07-30T12:33:58;27.30;99.90
19728;DHT22;10015;52.530;13.390;2023-07-30T12:36:24;27.20;99.90
19728;DHT22;10015;52.530;13.390;2023-07-30T12:38:51;27.20;99.90
19728;DHT22;10015;52.530;13.390;2023-07-30T12:41:20;27.00;99.90
19728;DHT22;10015;52.530;13.390;2023-07-30T12:43:55;27.00;99.90
19728;DHT22;10015;52.530;13.390;2023-07-30T12:46:24;27.00;99.90
19728;DHT22;10015;52.530;13.390;2023-07-30T12:48:52;27.10;99.90
19728;DHT22;10015;52.530;13.390;2023-07-30T12:51:18;27.10;99.90
19728;DHT22;10015;52.530;13.390;2023-07-30T12:53:44;26.90;99.90
19728;DHT22;10015;52.530;13.390;2023-07-30T12:56:10;26.70;99.90
19728;DHT22;10015;52.530;13.390;2023-07-30T12:58:36;26.80;99.90
19728;DHT22;10015;52.530;13.390;2023-07-30T13:01:02;26.90;99.90
19728;DHT22;10015;52.530;13.390;2023-07-30T13:03:29;27.00;99.90
19728;DHT22;10015;52.530;13.390;2023-07-30T13:05:55;27.00;99.90
19728;DHT22;10015;52.530;13.390;2023-07-30T13:08:24;27.00;99.90
19728;DHT22;10015;52.530;13.390;2023-07-30T13:10:50;26.90;99.90
19728;DHT22;10015;52.530;13.390;2023-07-30T13:13:16;26.90;99.90
19728;DHT22;10015;52.530;13.390;2023-07-30T13:15:42;26.80;99.90
19728;DHT22;10015;52.530;13.390;2023-07-30T13:18:07;26.70;99.90
19728;DHT22;10015;52.530;13.390;2023-07-30T13:20:33;26.80;99.90
19728;DHT22;10015;52.530;13.390;2023-07-30T13:22:59;26.60;99.90
19728;DHT22;10015;52.530;13.390;2023-07-30T13:25:25;26.50;99.90
19728;DHT22;10015;52.530;13.390;2023-07-30T13:27:51;26.30;99.90
19728;DHT22;10015;52.530;13.390;2023-07-30T13:30:17;26.30;99.90
19728;DHT22;10015;52.530;13.390;2023-07-30T13:32:43;26.50;99.90
19728;DHT22;10015;52.530;13.390;2023-07-30T13:35:09;26.60;99.90
19728;DHT22;10015;52.530;13.390;2023-07-30T13:37:35;26.80;99.90
19728;DHT22;10015;52.530;13.390;2023-07-30T13:40:00;26.80;99.90
19728;DHT22;10015;52.530;13.390;2023-07-30T13:42:26;26.50;99.90
19728;DHT22;10015;52.530;13.390;2023-07-30T13:44:52;26.50;99.90
19728;DHT22;10015;52.530;13.390;2023-07-30T13:47:18;26.20;99.90
19728;DHT22;10015;52.530;13.390;2023-07-30T13:49:44;26.10;99.90
19728;DHT22;10015;52.530;13.390;2023-07-30T13:52:10;26.00;99.90
19728;DHT22;10015;52.530;13.390;2023-07-30T13:54:36;26.00;99.90
19728;DHT22;10015;52.530;13.390;2023-07-30T13:57:03;26.00;99.90
19728;DHT22;10015;52.530;13.390;2023-07-30T13:59:31;26.00;99.90
19728;DHT22;10015;52.530;13.390;2023-07-30T14:01:57;26.00;99.90
19728;DHT22;10015;52.530;13.390;2023-07-30T14:04:22;26.10;99.90
19728;DHT22;10015;52.530;13.390;2023-07-30T14:06:48;25.90;99.90
19728;DHT22;10015;52.530;13.390;2023-07-30T14:09:14;25.80;99.90
19728;DHT22;10015;52.530;13.390;2023-07-30T14:11:40;25.80;99.90
19728;DHT22;10015;52.530;13.390;2023-07-30T14:14:10;25.70;99.90
19728;DHT22;10015;52.530;13.390;2023-07-30T14:16:36;25.70;99.90
19728;DHT22;10015;52.530;13.390;2023-07-30T14:19:02;25.60;99.90
19728;DHT22;10015;52.530;13.390;2023-07-30T14:21:28;25.50;99.90
19728;DHT22;10015;52.530;13.390;2023-07-30T14:23:54;25.50;99.90
19728;DHT22;10015;52.530;13.390;2023-07-30T14:26:20;25.60;99.90
19728;DHT22;10015;52.530;13.390;2023-07-30T14:28:46;25.50;99.90
19728;DHT22;10015;52.530;13.390;2023-07-30T14:31:12;25.40;99.90
19728;DHT22;10015;52.530;13.390;2023-07-30T14:33:40;25.40;99.90
19728;DHT22;10015;52.530;13.390;2023-07-30T14:36:06;25.30;99.90
19728;DHT22;10015;52.530;13.390;2023-07-30T14:38:32;25.20;99.90
19728;DHT22;10015;52.530;13.390;2023-07-30T14:41:00;25.10;99.90
19728;DHT22;10015;52.530;13.390;2023-07-30T14:43:26;24.90;99.90
19728;DHT22;10015;52.530;13.390;2023-07-30T14:45:53;24.80;99.90
19728;DHT22;10015;52.530;13.390;2023-07-30T14:48:19;24.70;99.90
19728;DHT22;10015;52.530;13.390;2023-07-30T14:50:45;24.70;99.90
19728;DHT22;10015;52.530;13.390;2023-07-30T14:53:11;24.60;99.90
19728;DHT22;10015;52.530;13.390;2023-07-30T14:55:37;24.50;99.90
19728;DHT22;10015;52.530;13.390;2023-07-30T14:58:03;24.50;99.90
19728;DHT22;10015;52.530;13.390;2023-07-30T15:00:29;24.40;99.90
19728;DHT22;10015;52.530;13.390;2023-07-30T15:02:55;24.20;99.90
19728;DHT22;10015;52.530;13.390;2023-07-30T15:05:20;24.10;99.90
19728;DHT22;10015;52.530;13.390;2023-07-30T15:07:46;24.00;99.90
19728;DHT22;10015;52.530;13.390;2023-07-30T15:10:12;24.00;99.90
19728;DHT22;10015;52.530;13.390;2023-07-30T15:12:38;23.80;99.90
19728;DHT22;10015;52.530;13.390;2023-07-30T15:15:05;23.70;99.90